Time;durP1;ratioP1;P1;durP2;ratioP2;P2;SDS_P1;SDS_P2;PMS_P1;PMS_P2;Temp;Humidity;BMP_temperature;BMP_pressure;BME280_temperature;BME280_humidity;BME280_pressure;Samples;Min_cycle;Max_cycle;Signal;HPM_P1;HPM_P2
2022/06/04 00:00:18;;;;;;;;;;;;;;;20.56;87.20;100403.44;5067678;28;20011;-31
2022/06/04 00:02:44;;;;;;;;;;;;;;;20.51;85.81;100406.16;5067386;28;19916;-28
2022/06/04 00:05:10;;;;;;;;;;;;;;;19.86;87.01;100407.69;5082732;28;20033;-34
2022/06/04 00:07:36;;;;;;;;;;;;;;;19.79;87.73;100396.31;5067293;28;20300;-28
2022/06/04 00:15:34;;;;;;;;;;;;;;;20.24;85.22;100385.66;5067613;28;20005;-29
2022/06/04 00:18:00;;;;;;;;;;;;;;;20.14;85.57;100386.50;5067150;28;19952;-28
2022/06/04 00:20:25;;;;;;;;;;;;;;;20.01;86.34;100385.19;5066743;28;19913;-28
2022/06/04 00:22:57;;;;;;;;;;;;;;;20.43;84.08;100373.16;5066828;28;19966;-32
2022/06/04 00:25:22;;;;;;;;;;;;;;;19.86;86.52;100379.81;5067334;28;19916;-32
2022/06/04 00:27:47;;;;;;;;;;;;;;;19.77;87.28;100376.00;5049044;28;20383;-30
2022/06/04 00:30:13;;;;;;;;;;;;;;;19.93;86.55;100374.91;5067073;28;19972;-31
2022/06/04 00:32:38;;;;;;;;;;;;;;;20.10;85.74;100376.50;5067156;28;19920;-28
2022/06/04 00:35:04;;;;;;;;;;;;;;;20.11;85.51;100370.00;5066789;28;19932;-33
2022/06/04 00:37:34;;;;;;;;;;;;;;;20.04;85.36;100367.56;5066879;28;20019;-28
2022/06/04 00:39:59;;;;;;;;;;;;;;;20.38;83.80;100362.31;5082470;28;20007;-29
2022/06/04 00:42:25;;;;;;;;;;;;;;;20.62;82.34;100364.44;5067067;28;20061;-32
2022/06/04 00:45:09;;;;;;;;;;;;;;;20.46;82.67;100361.75;5066910;28;20009;-31
2022/06/04 00:47:36;;;;;;;;;;;;;;;20.47;82.83;100363.38;5066830;28;20451;-28
2022/06/04 00:50:01;;;;;;;;;;;;;;;20.38;83.47;100348.78;5067086;28;19912;-28
2022/06/04 00:52:27;;;;;;;;;;;;;;;20.42;82.86;100349.03;5067395;28;19965;-32
2022/06/04 00:54:53;;;;;;;;;;;;;;;20.48;81.96;100345.22;5066866;28;19970;-29
2022/06/04 00:57:34;;;;;;;;;;;;;;;20.41;82.24;100342.00;5067020;28;19923;-29
2022/06/04 01:00:05;;;;;;;;;;;;;;;19.80;85.54;100337.59;5066879;28;19923;-30
2022/06/04 01:02:39;;;;;;;;;;;;;;;19.47;88.18;100340.56;5066660;28;19913;-30
2022/06/04 01:05:04;;;;;;;;;;;;;;;19.27;87.76;100335.97;5067247;28;19920;-31
2022/06/04 01:07:37;;;;;;;;;;;;;;;19.43;86.37;100339.50;5066455;28;20388;-28
2022/06/04 01:10:38;;;;;;;;;;;;;;;19.75;85.63;100326.78;5066645;28;19912;-36
2022/06/04 01:13:25;;;;;;;;;;;;;;;20.15;83.83;100327.75;5004241;28;20363;-30
2022/06/04 01:15:57;;;;;;;;;;;;;;;19.75;84.76;100329.47;5062634;28;19931;-31
2022/06/04 01:18:41;;;;;;;;;;;;;;;19.43;87.18;100338.66;5066488;28;20035;-28
2022/06/04 01:21:29;;;;;;;;;;;;;;;19.64;86.26;100334.06;5066239;28;19924;-28
2022/06/04 01:23:55;;;;;;;;;;;;;;;19.79;85.95;100335.97;5066157;28;19920;-35
2022/06/04 01:26:38;;;;;;;;;;;;;;;19.94;85.69;100338.66;5066501;28;19913;-30
2022/06/04 01:29:07;;;;;;;;;;;;;;;20.03;84.23;100337.00;5066346;28;19939;-32
2022/06/04 01:31:39;;;;;;;;;;;;;;;19.86;84.61;100336.50;5067770;28;19916;-29
2022/06/04 01:34:08;;;;;;;;;;;;;;;19.88;84.05;100350.56;5070080;28;19967;-30
2022/06/04 01:36:49;;;;;;;;;;;;;;;19.68;84.39;100333.25;5070047;28;19916;-34
2022/06/04 01:39:18;;;;;;;;;;;;;;;19.79;84.56;100341.38;5069771;28;20504;-28
2022/06/04 01:41:47;;;;;;;;;;;;;;;19.60;85.56;100333.00;5069897;28;19912;-29
2022/06/04 01:44:29;;;;;;;;;;;;;;;19.31;88.05;100340.81;5070018;28;19924;-30
2022/06/04 01:46:56;;;;;;;;;;;;;;;18.94;89.14;100339.16;5069856;28;19927;-31
2022/06/04 01:49:21;;;;;;;;;;;;;;;18.61;88.99;100327.72;5069873;28;19920;-30
2022/06/04 01:51:48;;;;;;;;;;;;;;;18.89;88.13;100331.06;5069791;28;19947;-29
2022/06/04 01:54:24;;;;;;;;;;;;;;;19.40;87.70;100340.03;5069498;28;19939;-31
2022/06/04 01:56:55;;;;;;;;;;;;;;;19.49;87.41;100340.28;5069618;28;19916;-28
2022/06/04 01:59:56;;;;;;;;;;;;;;;19.46;87.61;100343.53;5069584;28;20384;-32
2022/06/04 02:02:27;;;;;;;;;;;;;;;19.54;87.28;100350.31;5007094;28;20064;-32
2022/06/04 02:04:56;;;;;;;;;;;;;;;19.23;89.46;100340.31;5058624;28;19950;-29
2022/06/04 02:07:32;;;;;;;;;;;;;;;19.33;88.96;100344.06;5069759;28;19939;-28
2022/06/04 02:10:09;;;;;;;;;;;;;;;18.92;87.69;100335.94;5069516;28;20285;-29
2022/06/04 02:12:36;;;;;;;;;;;;;;;18.93;86.88;100334.88;5051198;28;19989;-30
2022/06/04 02:15:10;;;;;;;;;;;;;;;19.16;86.32;100339.75;5069316;28;19916;-28
2022/06/04 02:17:37;;;;;;;;;;;;;;;19.32;85.18;100343.28;5069295;28;20756;-29
2022/06/04 02:20:03;;;;;;;;;;;;;;;19.59;83.70;100347.59;5069115;28;19962;-31
2022/06/04 02:22:31;;;;;;;;;;;;;;;18.99;86.15;100341.91;5069277;28;20324;-33
2022/06/04 02:24:59;;;;;;;;;;;;;;;18.86;87.44;100351.34;5068958;28;19912;-28
2022/06/04 02:27:24;;;;;;;;;;;;;;;19.18;86.55;100363.81;5069108;28;19958;-30
2022/06/04 02:29:50;;;;;;;;;;;;;;;19.21;87.06;100355.97;5068954;28;20490;-30
2022/06/04 02:32:15;;;;;;;;;;;;;;;19.12;87.16;100341.34;5069408;28;20391;-28
2022/06/04 02:34:52;;;;;;;;;;;;;;;19.41;86.10;100357.06;5050336;28;19924;-33
2022/06/04 02:37:36;;;;;;;;;;;;;;;19.46;85.92;100359.78;5069046;28;19916;-28
2022/06/04 02:40:21;;;;;;;;;;;;;;;19.47;85.03;100361.38;5068618;28;19959;-33
2022/06/04 02:42:52;;;;;;;;;;;;;;;18.96;88.20;100358.63;5068107;28;19916;-29
2022/06/04 02:45:24;;;;;;;;;;;;;;;19.34;85.65;100362.75;5068821;28;19912;-28
2022/06/04 02:47:52;;;;;;;;;;;;;;;18.99;85.86;100367.03;5068869;28;19912;-31
2022/06/04 02:50:34;;;;;;;;;;;;;;;18.90;85.22;100363.25;5068642;28;19944;-29
2022/06/04 02:53:01;;;;;;;;;;;;;;;18.43;86.30;100369.53;5069070;28;19912;-28
2022/06/04 02:55:29;;;;;;;;;;;;;;;18.54;85.11;100357.69;5068685;28;20010;-31
2022/06/04 02:57:58;;;;;;;;;;;;;;;18.92;84.73;100362.94;5084156;28;19916;-28
2022/06/04 03:00:25;;;;;;;;;;;;;;;19.22;84.19;100370.31;5068603;28;19963;-28
2022/06/04 03:02:51;;;;;;;;;;;;;;;19.30;85.09;100372.47;5050154;28;19916;-28
2022/06/04 03:05:26;;;;;;;;;;;;;;;19.37;85.36;100383.00;5050189;28;20375;-31
2022/06/04 03:07:56;;;;;;;;;;;;;;;19.12;87.45;100381.09;5084121;28;19938;-32
2022/06/04 03:10:24;;;;;;;;;;;;;;;18.96;88.94;100372.16;5050430;28;19923;-29
2022/06/04 03:12:49;;;;;;;;;;;;;;;18.74;90.17;100378.56;5068166;28;19938;-28
2022/06/04 03:15:15;;;;;;;;;;;;;;;18.72;90.68;100382.63;5068202;28;19924;-32
2022/06/04 03:17:41;;;;;;;;;;;;;;;18.66;88.25;100389.88;5068203;28;19912;-32
2022/06/04 03:20:07;;;;;;;;;;;;;;;18.95;88.59;100381.34;5083422;28;19967;-31
2022/06/04 03:22:33;;;;;;;;;;;;;;;19.27;87.25;100394.66;5068233;28;20330;-31
2022/06/04 03:24:58;;;;;;;;;;;;;;;19.44;86.37;100403.31;5068281;28;19922;-28
2022/06/04 03:27:23;;;;;;;;;;;;;;;19.51;87.13;100402.22;5067975;28;20482;-28
2022/06/04 03:29:49;;;;;;;;;;;;;;;19.82;86.25;100409.31;5067810;28;19920;-29
2022/06/04 03:32:14;;;;;;;;;;;;;;;19.84;87.32;100407.13;5067433;28;19931;-29
2022/06/04 03:34:39;;;;;;;;;;;;;;;19.97;86.42;100408.47;5067282;28;19924;-33
2022/06/04 03:37:04;;;;;;;;;;;;;;;19.94;87.19;100410.91;5049712;28;19924;-33
2022/06/04 03:39:30;;;;;;;;;;;;;;;20.01;86.77;100401.41;5067657;28;20011;-29
2022/06/04 03:41:55;;;;;;;;;;;;;;;20.14;86.15;100408.16;5049788;28;20391;-30
2022/06/04 03:44:22;;;;;;;;;;;;;;;20.07;86.88;100408.44;5067555;28;19931;-30
2022/06/04 03:46:47;;;;;;;;;;;;;;;20.09;87.15;100408.19;5067723;28;19916;-33
2022/06/04 03:49:12;;;;;;;;;;;;;;;20.02;88.36;100415.75;5049418;28;19935;-33
2022/06/04 03:51:39;;;;;;;;;;;;;;;20.19;87.93;100410.06;5067523;28;20383;-30
2022/06/04 03:54:05;;;;;;;;;;;;;;;20.33;87.04;100416.53;5066952;28;19921;-29
2022/06/04 03:56:30;;;;;;;;;;;;;;;20.26;87.91;100408.66;5067365;28;20395;-29
2022/06/04 03:58:55;;;;;;;;;;;;;;;20.52;87.73;100413.22;5049130;28;19924;-29
2022/06/04 04:01:25;;;;;;;;;;;;;;;20.50;87.63;100409.97;5067393;28;19919;-31
2022/06/04 04:03:50;;;;;;;;;;;;;;;20.32;89.18;100424.91;5049247;28;19912;-30
2022/06/04 04:06:17;;;;;;;;;;;;;;;20.51;nan;100427.84;5082788;28;19912;-29
2022/06/04 04:08:43;;;;;;;;;;;;;;;20.42;88.98;100420.28;5082581;28;19916;-29
2022/06/04 04:11:09;;;;;;;;;;;;;;;20.60;nan;100423.50;5067285;28;19924;-29
2022/06/04 04:13:34;;;;;;;;;;;;;;;20.57;87.89;100424.00;5067715;28;20448;-28
2022/06/04 04:16:00;;;;;;;;;;;;;;;20.39;88.75;100431.69;5082392;28;19916;-29
2022/06/04 04:18:25;;;;;;;;;;;;;;;20.42;89.02;100430.31;5067455;28;19920;-29
2022/06/04 04:20:51;;;;;;;;;;;;;;;20.54;88.40;100436.22;5067103;28;19918;-28
2022/06/04 04:23:16;;;;;;;;;;;;;;;20.50;89.29;100431.66;5067380;28;19912;-29
2022/06/04 04:25:42;;;;;;;;;;;;;;;20.63;86.97;100434.59;5067382;28;19923;-32
2022/06/04 04:28:08;;;;;;;;;;;;;;;20.67;88.55;100437.56;5067285;28;20019;-29
2022/06/04 04:30:34;;;;;;;;;;;;;;;20.92;87.62;100433.09;5066883;28;19916;-33
2022/06/04 04:33:00;;;;;;;;;;;;;;;21.18;86.75;100431.06;5067197;28;19978;-31
2022/06/04 04:35:27;;;;;;;;;;;;;;;21.20;83.91;100440.53;5048834;28;19928;-29
2022/06/04 04:37:53;;;;;;;;;;;;;;;21.21;84.97;100439.47;5067148;28;19944;-28
2022/06/04 04:40:20;;;;;;;;;;;;;;;21.25;84.19;100440.53;5067198;28;19977;-29
2022/06/04 04:42:45;;;;;;;;;;;;;;;21.33;82.70;100430.16;5066682;28;19944;-31
2022/06/04 04:45:11;;;;;;;;;;;;;;;21.28;82.84;100431.00;5066669;28;20053;-28
2022/06/04 04:47:38;;;;;;;;;;;;;;;21.26;83.99;100428.56;5066873;28;20382;-32
2022/06/04 04:50:05;;;;;;;;;;;;;;;21.35;83.79;100415.25;5066852;28;19917;-29
2022/06/04 04:52:30;;;;;;;;;;;;;;;21.62;82.27;100430.25;5082190;28;19995;-30
2022/06/04 04:54:55;;;;;;;;;;;;;;;21.63;81.06;100431.88;5048274;28;20027;-31
2022/06/04 04:57:20;;;;;;;;;;;;;;;21.70;79.62;100431.53;5066758;28;19912;-30
2022/06/04 04:59:46;;;;;;;;;;;;;;;21.80;78.91;100437.72;5081716;28;19948;-28
2022/06/04 05:02:11;;;;;;;;;;;;;;;21.83;79.76;100439.84;5066939;28;20666;-29
2022/06/04 05:04:36;;;;;;;;;;;;;;;22.11;78.95;100442.84;5066435;28;19919;-33
2022/06/04 05:07:02;;;;;;;;;;;;;;;22.13;77.76;100456.13;5069295;28;20013;-29
2022/06/04 05:09:27;;;;;;;;;;;;;;;22.04;78.24;100437.75;5070621;28;19955;-37
2022/06/04 05:11:53;;;;;;;;;;;;;;;21.95;78.83;100453.03;5070553;28;19923;-29
2022/06/04 05:14:18;;;;;;;;;;;;;;;22.17;78.89;100451.75;5052332;28;19917;-29
2022/06/04 05:16:43;;;;;;;;;;;;;;;22.24;79.42;100444.91;5070615;28;19916;-28
2022/06/04 05:19:08;;;;;;;;;;;;;;;22.23;78.65;100445.16;5070759;28;20022;-32
2022/06/04 05:21:39;;;;;;;;;;;;;;;22.64;77.52;100452.91;5070469;28;20023;-32
2022/06/04 05:24:05;;;;;;;;;;;;;;;22.83;76.18;100448.31;5070355;28;19920;-33
2022/06/04 05:26:30;;;;;;;;;;;;;;;23.10;74.82;100446.91;5070257;28;19924;-31
2022/06/04 05:28:56;;;;;;;;;;;;;;;23.16;74.04;100445.72;5069852;28;19919;-29
2022/06/04 05:31:21;;;;;;;;;;;;;;;23.14;73.51;100447.94;5070371;28;20007;-31
2022/06/04 05:33:47;;;;;;;;;;;;;;;23.18;72.41;100448.97;5051623;28;19920;-29
2022/06/04 05:36:12;;;;;;;;;;;;;;;23.39;71.92;100451.38;5070033;28;19924;-29
2022/06/04 05:38:38;;;;;;;;;;;;;;;23.23;72.32;100440.75;5085169;28;19922;-29
2022/06/04 05:41:06;;;;;;;;;;;;;;;23.20;73.94;100441.31;5069947;28;19917;-30
2022/06/04 05:43:31;;;;;;;;;;;;;;;23.41;70.89;100447.25;5085081;28;20010;-30
2022/06/04 05:46:04;;;;;;;;;;;;;;;23.75;71.71;100439.94;5070179;28;20047;-28
2022/06/04 05:48:29;;;;;;;;;;;;;;;23.75;70.60;100438.03;5085465;28;19916;-30
2022/06/04 05:50:55;;;;;;;;;;;;;;;23.72;71.98;100441.34;5069848;28;19931;-28
2022/06/04 05:53:21;;;;;;;;;;;;;;;23.69;70.53;100427.53;5069600;28;19916;-30
2022/06/04 05:55:47;;;;;;;;;;;;;;;24.06;70.66;100451.13;5069679;28;19916;-30
2022/06/04 05:58:12;;;;;;;;;;;;;;;24.09;71.06;100457.91;5069285;28;19919;-31
2022/06/04 06:00:38;;;;;;;;;;;;;;;24.27;69.86;100457.00;5084964;28;19970;-29
2022/06/04 06:03:03;;;;;;;;;;;;;;;24.00;72.54;100453.13;5069606;28;19920;-30
2022/06/04 06:05:29;;;;;;;;;;;;;;;24.36;69.36;100447.03;5069717;28;19916;-32
2022/06/04 06:07:54;;;;;;;;;;;;;;;24.61;69.01;100458.59;5069780;28;19912;-29
2022/06/04 06:10:20;;;;;;;;;;;;;;;24.88;67.72;100460.47;5069445;28;19920;-31
2022/06/04 06:12:46;;;;;;;;;;;;;;;24.66;67.44;100464.75;5069182;28;19939;-29
2022/06/04 06:15:11;;;;;;;;;;;;;;;24.80;68.62;100461.19;5069365;28;19966;-29
2022/06/04 06:17:38;;;;;;;;;;;;;;;24.92;69.29;100466.13;5069271;28;19982;-32
2022/06/04 06:20:04;;;;;;;;;;;;;;;25.03;67.22;100460.16;5069455;28;19919;-31
2022/06/04 06:22:29;;;;;;;;;;;;;;;25.03;67.48;100459.38;5069165;28;19912;-37
2022/06/04 06:24:56;;;;;;;;;;;;;;;25.21;66.77;100458.44;5069173;28;19920;-30
2022/06/04 06:27:22;;;;;;;;;;;;;;;25.41;66.63;100448.16;5069347;28;19950;-31
2022/06/04 06:29:47;;;;;;;;;;;;;;;25.38;66.28;100440.59;5069388;28;19951;-29
2022/06/04 06:32:12;;;;;;;;;;;;;;;25.29;66.74;100456.06;5069309;28;19947;-34
2022/06/04 06:34:38;;;;;;;;;;;;;;;25.78;65.40;100444.22;5068753;28;19916;-28
2022/06/04 06:37:03;;;;;;;;;;;;;;;25.67;65.43;100454.59;5069443;28;19981;-29
2022/06/04 06:39:28;;;;;;;;;;;;;;;25.93;63.29;100451.28;5068873;28;20368;-31
2022/06/04 06:41:54;;;;;;;;;;;;;;;25.76;62.90;100451.91;5068836;28;19912;-29
2022/06/04 06:44:21;;;;;;;;;;;;;;;25.90;61.48;100449.16;5050805;28;20300;-29
2022/06/04 06:46:47;;;;;;;;;;;;;;;25.76;62.24;100448.41;5068901;28;20002;-31
2022/06/04 06:49:12;;;;;;;;;;;;;;;26.08;63.12;100446.53;5050635;28;20352;-31
2022/06/04 06:51:49;;;;;;;;;;;;;;;26.38;62.39;100456.63;5068815;28;19913;-29
2022/06/04 06:54:15;;;;;;;;;;;;;;;26.41;61.40;100450.53;5068436;28;20406;-31
2022/06/04 06:56:41;;;;;;;;;;;;;;;26.54;61.48;100440.63;5068500;28;19916;-34
2022/06/04 06:59:07;;;;;;;;;;;;;;;26.63;60.27;100452.41;5068574;28;19916;-30
2022/06/04 07:01:33;;;;;;;;;;;;;;;26.71;60.47;100448.09;5068675;28;19916;-30
2022/06/04 07:03:58;;;;;;;;;;;;;;;26.70;61.07;100454.66;5050248;28;19920;-31
2022/06/04 07:06:28;;;;;;;;;;;;;;;26.68;60.66;100432.28;5068741;28;19912;-32
2022/06/04 07:08:53;;;;;;;;;;;;;;;26.72;59.64;100438.75;5049801;28;19932;-32
2022/06/04 07:11:19;;;;;;;;;;;;;;;27.01;59.63;100434.59;5068174;28;19951;-28
2022/06/04 07:13:44;;;;;;;;;;;;;;;27.15;59.89;100427.03;5068776;28;20384;-29
2022/06/04 07:16:09;;;;;;;;;;;;;;;27.30;57.36;100433.19;5068263;28;19940;-32
2022/06/04 07:18:35;;;;;;;;;;;;;;;27.09;60.99;100433.00;5067988;28;20309;-29
2022/06/04 07:21:03;;;;;;;;;;;;;;;27.41;58.31;100429.00;5050066;28;19948;-30
2022/06/04 07:23:31;;;;;;;;;;;;;;;27.67;59.24;100428.97;5067949;28;19916;-30
2022/06/04 07:25:56;;;;;;;;;;;;;;;27.88;55.92;100422.84;5050048;28;20574;-28
2022/06/04 07:28:21;;;;;;;;;;;;;;;27.93;56.17;100420.72;5067702;28;20380;-29
2022/06/04 07:30:47;;;;;;;;;;;;;;;27.94;59.09;100422.31;5049551;28;19965;-31
2022/06/04 07:33:12;;;;;;;;;;;;;;;27.89;55.87;100417.03;5067613;28;20003;-32
2022/06/04 07:35:37;;;;;;;;;;;;;;;27.89;56.47;100411.56;5067541;28;20311;-31
2022/06/04 07:38:03;;;;;;;;;;;;;;;28.00;55.88;100403.78;5067565;28;19916;-32
2022/06/04 07:40:28;;;;;;;;;;;;;;;28.31;56.66;100413.63;5067985;28;19921;-34
2022/06/04 07:42:53;;;;;;;;;;;;;;;28.25;54.44;100421.25;5067567;28;19916;-34
2022/06/04 07:45:19;;;;;;;;;;;;;;;28.44;55.06;100423.56;5067846;28;19912;-31
2022/06/04 07:47:45;;;;;;;;;;;;;;;28.43;54.85;100417.28;5067726;28;19912;-29
2022/06/04 07:50:11;;;;;;;;;;;;;;;28.72;52.47;100426.66;5067530;28;19982;-30
2022/06/04 07:52:37;;;;;;;;;;;;;;;28.68;54.22;100420.22;5067588;28;19920;-31
2022/06/04 07:55:03;;;;;;;;;;;;;;;29.23;52.71;100423.91;5067746;28;19916;-28
2022/06/04 07:57:28;;;;;;;;;;;;;;;29.40;52.69;100418.28;5067577;28;19955;-36
2022/06/04 07:59:54;;;;;;;;;;;;;;;29.22;50.36;100425.06;5067410;28;20022;-30
2022/06/04 08:02:21;;;;;;;;;;;;;;;29.07;53.18;100418.19;5067652;28;20002;-31
2022/06/04 08:04:47;;;;;;;;;;;;;;;29.35;51.95;100409.44;5067214;28;19970;-30
2022/06/04 08:07:12;;;;;;;;;;;;;;;29.47;51.81;100400.44;5067246;28;20001;-31
2022/06/04 08:09:37;;;;;;;;;;;;;;;29.54;49.68;100409.72;5067495;28;19916;-32
2022/06/04 08:12:03;;;;;;;;;;;;;;;29.69;49.58;100399.22;5049334;28;20405;-29
2022/06/04 08:14:28;;;;;;;;;;;;;;;29.73;48.02;100398.25;5049204;28;20402;-30
2022/06/04 08:16:56;;;;;;;;;;;;;;;30.05;48.60;100404.81;5066872;28;19916;-31
2022/06/04 08:19:22;;;;;;;;;;;;;;;29.87;46.70;100406.16;5067044;28;20303;-29
2022/06/04 08:21:48;;;;;;;;;;;;;;;29.80;46.77;100397.69;5066833;28;20023;-31
2022/06/04 08:24:14;;;;;;;;;;;;;;;29.80;46.63;100395.72;5049057;28;20012;-33
2022/06/04 08:26:45;;;;;;;;;;;;;;;30.22;47.03;100397.50;5066645;28;19923;-31
2022/06/04 08:29:11;;;;;;;;;;;;;;;30.37;45.24;100396.03;5048960;28;20395;-31
2022/06/04 08:31:36;;;;;;;;;;;;;;;30.41;45.75;100391.44;5048687;28;19923;-29
2022/06/04 08:34:01;;;;;;;;;;;;;;;30.37;44.65;100390.53;5066769;28;19928;-29
2022/06/04 08:36:27;;;;;;;;;;;;;;;30.67;44.59;100382.81;5066664;28;19916;-29
2022/06/04 08:38:52;;;;;;;;;;;;;;;30.52;45.89;100389.00;5066658;28;20352;-32
2022/06/04 08:41:32;;;;;;;;;;;;;;;30.30;44.78;100390.28;5072287;28;19916;-30
2022/06/04 08:44:02;;;;;;;;;;;;;;;30.64;45.10;100387.03;5073677;28;19918;-29
2022/06/04 08:46:35;;;;;;;;;;;;;;;30.97;44.34;100385.28;5073666;28;19920;-29
2022/06/04 08:49:04;;;;;;;;;;;;;;;31.05;44.82;100381.56;5088809;28;19963;-31
2022/06/04 08:51:29;;;;;;;;;;;;;;;31.15;45.85;100381.06;5073649;28;19916;-29
2022/06/04 08:53:56;;;;;;;;;;;;;;;31.38;43.71;100378.56;5073608;28;20277;-30
2022/06/04 08:59:15;;;;;;;;;;;;;;;31.64;43.28;100369.03;5073444;28;19923;-35
2022/06/04 09:01:45;;;;;;;;;;;;;;;31.56;41.11;100373.56;5073548;28;19916;-35
2022/06/04 09:04:14;;;;;;;;;;;;;;;31.86;40.51;100375.91;5073632;28;19985;-29
2022/06/04 09:07:02;;;;;;;;;;;;;;;31.58;43.43;100374.00;5073293;28;19916;-29
2022/06/04 09:09:31;;;;;;;;;;;;;;;31.70;42.82;100372.34;5073149;28;19908;-29
2022/06/04 09:12:01;;;;;;;;;;;;;;;31.39;41.81;100368.34;5054874;28;19926;-30
2022/06/04 09:14:35;;;;;;;;;;;;;;;31.17;43.27;100367.75;5073498;28;19982;-32
2022/06/04 09:17:03;;;;;;;;;;;;;;;31.16;42.20;100366.16;5073343;28;19916;-31
2022/06/04 09:19:35;;;;;;;;;;;;;;;31.32;42.66;100359.88;5055109;28;19916;-29
2022/06/04 09:22:02;;;;;;;;;;;;;;;31.54;42.72;100359.31;5073438;28;19923;-32
2022/06/04 09:24:28;;;;;;;;;;;;;;;31.49;42.58;100356.84;5054585;28;19912;-30
2022/06/04 09:27:05;;;;;;;;;;;;;;;31.98;42.35;100350.19;5055108;28;19916;-29
2022/06/04 09:29:50;;;;;;;;;;;;;;;32.07;41.29;100341.75;5073442;28;20006;-32
2022/06/04 09:32:22;;;;;;;;;;;;;;;32.10;42.37;100352.06;5073269;28;20440;-34
2022/06/04 09:34:49;;;;;;;;;;;;;;;32.21;40.21;100358.63;5072370;28;19924;-29
2022/06/04 09:37:14;;;;;;;;;;;;;;;31.61;41.28;100351.25;5054958;28;19913;-29
2022/06/04 09:39:45;;;;;;;;;;;;;;;31.69;43.34;100343.16;5073248;28;19923;-31
2022/06/04 09:42:13;;;;;;;;;;;;;;;32.06;40.92;100334.63;5073565;28;19981;-30
2022/06/04 09:44:58;;;;;;;;;;;;;;;32.60;40.08;100333.91;5072886;28;19919;-30
2022/06/04 09:47:43;;;;;;;;;;;;;;;31.82;40.63;100337.19;5072779;28;19913;-31
2022/06/04 09:50:27;;;;;;;;;;;;;;;31.70;41.24;100329.00;5073132;28;19916;-29
2022/06/04 09:53:11;;;;;;;;;;;;;;;31.27;44.66;100330.63;5051351;28;20302;-36
2022/06/04 09:55:43;;;;;;;;;;;;;;;31.16;42.28;100324.84;5069685;28;19962;-32
2022/06/04 09:58:25;;;;;;;;;;;;;;;31.22;42.96;100320.69;5051818;28;19912;-31
2022/06/04 10:00:56;;;;;;;;;;;;;;;31.42;41.78;100318.03;5069504;28;19920;-29
2022/06/04 10:03:22;;;;;;;;;;;;;;;31.52;41.33;100313.97;5069759;28;20006;-30
2022/06/04 10:05:53;;;;;;;;;;;;;;;31.88;41.93;100303.84;5069421;28;19917;-29
2022/06/04 10:08:22;;;;;;;;;;;;;;;31.86;41.62;100295.91;5069714;28;19962;-31
2022/06/04 10:10:48;;;;;;;;;;;;;;;32.39;44.70;100293.59;5084749;28;19912;-39
2022/06/04 10:16:32;;;;;;;;;;;;;;;32.30;40.65;100298.50;5069713;28;20065;-29
2022/06/04 10:18:59;;;;;;;;;;;;;;;32.23;44.76;100292.84;5065758;28;19917;-31
2022/06/04 10:21:29;;;;;;;;;;;;;;;32.44;42.33;100290.53;5084660;28;19920;-29
2022/06/04 10:23:57;;;;;;;;;;;;;;;32.27;42.72;100295.69;5084832;28;19920;-29
2022/06/04 10:26:41;;;;;;;;;;;;;;;31.93;42.86;100298.03;5084441;28;19924;-31
2022/06/04 10:29:26;;;;;;;;;;;;;;;31.52;47.17;100284.44;5069425;28;20470;-31
2022/06/04 10:32:09;;;;;;;;;;;;;;;32.42;38.87;100287.34;5069225;28;20367;-35
2022/06/04 10:34:42;;;;;;;;;;;;;;;32.33;40.85;100278.50;5050318;28;20417;-30
2022/06/04 10:37:07;;;;;;;;;;;;;;;32.50;43.02;100273.72;5050834;28;19942;-30
2022/06/04 10:39:51;;;;;;;;;;;;;;;32.65;40.42;100272.06;5068950;28;20558;-32
2022/06/04 10:42:28;;;;;;;;;;;;;;;32.77;40.01;100275.47;5068864;28;19966;-35
2022/06/04 10:44:56;;;;;;;;;;;;;;;33.02;39.85;100270.44;5068827;28;19917;-29
2022/06/04 10:47:26;;;;;;;;;;;;;;;32.82;39.00;100266.91;5069129;28;19916;-30
2022/06/04 10:50:10;;;;;;;;;;;;;;;33.19;40.37;100255.38;5068468;28;19923;-29
2022/06/04 10:52:45;;;;;;;;;;;;;;;33.62;36.87;100258.88;5068580;28;19934;-32
2022/06/04 10:55:16;;;;;;;;;;;;;;;33.89;38.23;100253.34;5068536;28;20443;-33
2022/06/04 10:57:44;;;;;;;;;;;;;;;33.79;38.99;100245.69;5050623;28;20380;-29
2022/06/04 11:00:18;;;;;;;;;;;;;;;33.95;37.40;100249.09;5068139;28;19913;-30
2022/06/04 11:02:43;;;;;;;;;;;;;;;34.00;35.16;100242.44;5033564;28;19981;-34
2022/06/04 11:05:24;;;;;;;;;;;;;;;34.26;38.91;100230.56;5067305;28;19913;-32
2022/06/04 11:07:53;;;;;;;;;;;;;;;34.51;33.88;100233.66;5068254;28;19923;-32
2022/06/04 11:10:27;;;;;;;;;;;;;;;34.40;34.88;100235.47;5068126;28;20459;-32
2022/06/04 11:13:07;;;;;;;;;;;;;;;34.59;35.34;100232.56;5068280;28;19923;-33
2022/06/04 11:15:39;;;;;;;;;;;;;;;34.69;35.24;100224.75;5050476;28;19996;-34
2022/06/04 11:18:13;;;;;;;;;;;;;;;34.88;36.05;100219.03;5068174;28;20349;-34
2022/06/04 11:20:43;;;;;;;;;;;;;;;35.22;33.61;100228.06;5067867;28;19916;-32
2022/06/04 11:23:19;;;;;;;;;;;;;;;34.38;38.33;100205.41;5067877;28;19935;-32
2022/06/04 11:25:47;;;;;;;;;;;;;;;34.41;35.76;100214.94;5068324;28;19985;-33
2022/06/04 11:28:21;;;;;;;;;;;;;;;34.14;35.62;100208.66;5067961;28;20710;-29
2022/06/04 11:30:56;;;;;;;;;;;;;;;34.41;35.86;100209.41;5067944;28;19916;-29
2022/06/04 11:33:44;;;;;;;;;;;;;;;34.39;35.33;100207.00;5068400;28;19921;-32
2022/06/04 11:36:18;;;;;;;;;;;;;;;34.42;37.20;100217.31;5059500;28;20643;-31
2022/06/04 11:38:51;;;;;;;;;;;;;;;33.61;36.74;100202.00;5067464;28;19959;-30
2022/06/04 11:41:39;;;;;;;;;;;;;;;33.94;35.70;100203.25;5033050;28;20401;-32
2022/06/04 11:44:14;;;;;;;;;;;;;;;34.40;35.69;100202.25;5058896;28;19920;-31
2022/06/04 11:46:51;;;;;;;;;;;;;;;34.17;37.01;100205.94;5067544;28;19917;-37
2022/06/04 11:49:19;;;;;;;;;;;;;;;35.10;34.85;100192.31;5067674;28;19920;-30
2022/06/04 11:52:00;;;;;;;;;;;;;;;35.66;34.00;100189.63;5067673;28;19916;-31
2022/06/04 11:54:25;;;;;;;;;;;;;;;35.67;34.04;100188.44;5067345;28;20394;-30
2022/06/04 11:57:14;;;;;;;;;;;;;;;35.33;33.28;100185.78;5067380;28;19919;-30
2022/06/04 11:59:48;;;;;;;;;;;;;;;35.16;33.94;100179.72;5059197;28;19916;-31
2022/06/04 12:02:16;;;;;;;;;;;;;;;35.54;34.82;100179.59;5067366;28;19916;-32
2022/06/04 12:04:45;;;;;;;;;;;;;;;35.28;32.95;100177.84;5067018;28;19916;-33
2022/06/04 12:07:10;;;;;;;;;;;;;;;35.37;32.29;100167.19;5067310;28;19916;-30
2022/06/04 12:09:41;;;;;;;;;;;;;;;35.66;33.19;100164.66;5067475;28;20063;-29
2022/06/04 12:12:10;;;;;;;;;;;;;;;35.62;30.89;100170.16;5082562;28;19927;-31
2022/06/04 12:14:38;;;;;;;;;;;;;;;35.78;30.99;100161.56;5066749;28;19951;-33
2022/06/04 12:17:24;;;;;;;;;;;;;;;35.68;33.68;100156.75;5067093;28;19918;-39
2022/06/04 12:25:36;;;;;;;;;;;;;;;36.69;32.18;100149.59;5067308;28;20383;-35
2022/06/04 12:28:03;;;;;;;;;;;;;;;35.90;32.16;100147.34;5067147;28;20011;-31
2022/06/04 12:30:39;;;;;;;;;;;;;;;35.76;31.80;100155.59;5082374;28;19916;-30
2022/06/04 12:33:10;;;;;;;;;;;;;;;35.81;31.62;100158.00;5082195;28;19978;-31
2022/06/04 12:35:35;;;;;;;;;;;;;;;35.41;32.16;100151.38;5048635;28;19974;-32
2022/06/04 12:38:11;;;;;;;;;;;;;;;35.19;33.08;100148.47;5066837;28;19920;-31
2022/06/04 12:40:37;;;;;;;;;;;;;;;35.84;32.05;100142.53;5066674;28;20015;-32
2022/06/04 12:43:26;;;;;;;;;;;;;;;35.70;31.36;100148.84;5066927;28;19995;-31
2022/06/04 12:46:04;;;;;;;;;;;;;;;35.29;31.55;100141.41;5066585;28;20019;-30
2022/06/04 12:48:29;;;;;;;;;;;;;;;36.27;30.83;100138.00;5066542;28;20451;-31
2022/06/04 12:50:59;;;;;;;;;;;;;;;36.09;30.13;100149.00;5066814;28;20024;-29
2022/06/04 12:53:27;;;;;;;;;;;;;;;35.51;30.89;100141.53;5048587;28;20311;-31
2022/06/04 12:56:16;;;;;;;;;;;;;;;35.37;32.03;100136.69;5066709;28;19923;-31
2022/06/04 12:58:49;;;;;;;;;;;;;;;36.17;30.02;100135.97;5057643;28;19916;-32
2022/06/04 13:01:20;;;;;;;;;;;;;;;35.53;30.76;100128.91;5081943;28;19916;-34
2022/06/04 13:03:50;;;;;;;;;;;;;;;36.56;30.02;100133.28;5048718;28;19954;-33
2022/06/04 13:06:28;;;;;;;;;;;;;;;35.87;30.71;100120.38;5066557;28;19970;-34